createdAt,value
2022-08-09T00:00:21.724Z,100.00
2022-08-09T00:03:11.007Z,100.00
2022-08-09T00:06:17.736Z,100.00
2022-08-09T00:08:48.505Z,100.00
2022-08-09T00:11:24.940Z,100.00
2022-08-09T00:13:55.690Z,100.00
2022-08-09T00:16:26.223Z,100.00
2022-08-09T00:19:09.467Z,100.00
2022-08-09T00:21:56.317Z,100.00
2022-08-09T00:24:27.944Z,100.00
2022-08-09T00:26:56.250Z,100.00
2022-08-09T00:30:16.565Z,100.00
2022-08-09T00:32:14.140Z,100.00
2022-08-09T00:34:53.257Z,100.00
2022-08-09T00:37:20.974Z,100.00
2022-08-09T00:40:09.027Z,100.00
2022-08-09T00:44:14.158Z,100.00
2022-08-09T00:45:23.760Z,100.00
2022-08-09T00:47:53.157Z,100.00
2022-08-09T00:50:24.354Z,100.00
2022-08-09T00:52:55.570Z,100.00
2022-08-09T00:56:03.969Z,100.00
2022-08-09T00:58:14.664Z,100.00
2022-08-09T01:00:53.365Z,100.00
2022-08-09T01:03:48.370Z,100.00
2022-08-09T01:06:53.421Z,100.00
2022-08-09T01:09:23.324Z,100.00
2022-08-09T01:12:30.769Z,100.00
2022-08-09T01:15:09.913Z,100.00
2022-08-09T01:18:03.822Z,100.00
2022-08-09T01:20:53.248Z,100.00
2022-08-09T01:24:01.721Z,100.00
2022-08-09T01:26:53.682Z,100.00
2022-08-09T01:29:40.887Z,100.00
2022-08-09T01:32:31.281Z,100.00
2022-08-09T01:35:07.072Z,100.00
2022-08-09T01:38:08.418Z,100.00
2022-08-09T01:40:34.174Z,100.00
2022-08-09T01:43:05.600Z,100.00
2022-08-09T01:45:35.538Z,100.00
2022-08-09T01:48:15.438Z,100.00
2022-08-09T01:50:48.452Z,100.00
2022-08-09T01:53:19.629Z,100.00
2022-08-09T01:55:48.533Z,100.00
2022-08-09T01:58:16.700Z,100.00
2022-08-09T02:00:46.215Z,100.00
2022-08-09T02:03:15.771Z,100.00
2022-08-09T02:06:03.653Z,100.00
2022-08-09T02:08:40.714Z,100.00
2022-08-09T02:11:21.256Z,100.00
2022-08-09T02:14:06.599Z,100.00
2022-08-09T02:16:59.516Z,100.00
2022-08-09T02:19:25.166Z,100.00
2022-08-09T02:22:15.393Z,100.00
2022-08-09T02:24:51.815Z,100.00
2022-08-09T02:27:21.416Z,100.00
2022-08-09T02:30:09.985Z,100.00
2022-08-09T02:32:41.964Z,100.00
2022-08-09T02:35:17.848Z,100.00
2022-08-09T02:37:51.204Z,100.00
2022-08-09T02:40:26.933Z,100.00
2022-08-09T02:42:59.920Z,100.00
2022-08-09T02:45:33.495Z,100.00
2022-08-09T02:48:06.352Z,100.00
2022-08-09T02:50:56.380Z,100.00
2022-08-09T02:53:31.760Z,100.00
2022-08-09T02:56:02.959Z,100.00
2022-08-09T02:58:36.414Z,100.00
2022-08-09T03:01:11.017Z,100.00
2022-08-09T03:04:18.966Z,100.00
2022-08-09T03:06:31.453Z,100.00
2022-08-09T03:09:01.248Z,100.00
2022-08-09T03:11:29.787Z,100.00
2022-08-09T03:14:18.809Z,100.00
2022-08-09T03:16:54.726Z,100.00
2022-08-09T03:19:52.580Z,100.00
2022-08-09T03:22:25.665Z,100.00
2022-08-09T03:25:06.353Z,100.00
2022-08-09T03:27:51.935Z,100.00
2022-08-09T03:30:30.026Z,100.00
2022-08-09T03:33:17.443Z,100.00
2022-08-09T03:36:12.974Z,100.00
2022-08-09T03:38:42.742Z,100.00
2022-08-09T03:41:15.389Z,100.00
2022-08-09T03:44:02.906Z,100.00
2022-08-09T03:46:32.504Z,100.00
2022-08-09T03:49:04.162Z,100.00
2022-08-09T03:51:56.442Z,100.00
2022-08-09T03:54:31.238Z,100.00
2022-08-09T03:57:04.414Z,100.00
2022-08-09T03:59:54.871Z,100.00
2022-08-09T04:02:28.677Z,100.00
2022-08-09T04:04:59.006Z,100.00
2022-08-09T04:07:33.646Z,100.00
2022-08-09T04:10:20.471Z,100.00
2022-08-09T04:12:51.996Z,100.00
2022-08-09T04:15:40.523Z,100.00
2022-08-09T04:18:17.997Z,100.00
2022-08-09T04:20:47.641Z,100.00
2022-08-09T04:23:17.033Z,100.00
2022-08-09T04:25:49.859Z,100.00
2022-08-09T04:28:36.313Z,100.00
2022-08-09T04:31:08.664Z,100.00
2022-08-09T04:33:47.635Z,100.00
2022-08-09T04:36:26.125Z,100.00
2022-08-09T04:38:54.560Z,100.00
2022-08-09T04:41:23.610Z,100.00
2022-08-09T04:44:05.145Z,100.00
2022-08-09T04:46:57.734Z,100.00
2022-08-09T04:49:40.309Z,100.00
2022-08-09T04:52:12.029Z,100.00
2022-08-09T04:54:48.336Z,100.00
2022-08-09T04:57:16.073Z,100.00
2022-08-09T04:59:52.293Z,100.00
2022-08-09T05:02:19.842Z,100.00
2022-08-09T05:04:47.578Z,100.00
2022-08-09T05:07:19.273Z,100.00
2022-08-09T05:09:50.054Z,100.00
2022-08-09T05:12:17.675Z,100.00
2022-08-09T05:14:46.028Z,100.00
2022-08-09T05:18:39.449Z,100.00
2022-08-09T05:20:01.027Z,100.00
2022-08-09T05:22:35.749Z,100.00
2022-08-09T05:25:16.964Z,100.00
2022-08-09T05:27:48.041Z,100.00
2022-08-09T05:30:17.590Z,100.00
2022-08-09T05:32:50.790Z,100.00
2022-08-09T05:35:18.935Z,100.00
2022-08-09T05:37:51.238Z,100.00
2022-08-09T05:40:18.765Z,100.00
2022-08-09T05:42:47.366Z,100.00
2022-08-09T05:45:14.946Z,100.00
2022-08-09T05:47:51.593Z,100.00
2022-08-09T05:50:36.151Z,100.00
2022-08-09T05:53:21.601Z,100.00
2022-08-09T05:55:59.770Z,100.00
2022-08-09T05:58:29.084Z,100.00
2022-08-09T06:00:56.550Z,100.00
2022-08-09T06:03:34.628Z,100.00
2022-08-09T06:06:04.573Z,100.00
2022-08-09T06:08:34.085Z,100.00
2022-08-09T06:11:01.570Z,100.00
2022-08-09T06:13:44.818Z,100.00
2022-08-09T06:16:14.922Z,100.00
2022-08-09T06:18:43.879Z,100.00
2022-08-09T06:21:11.991Z,100.00
2022-08-09T06:23:57.994Z,100.00
2022-08-09T06:26:29.193Z,100.00
2022-08-09T06:29:00.481Z,100.00
2022-08-09T06:31:30.782Z,100.00
2022-08-09T06:33:59.308Z,100.00
2022-08-09T06:36:27.220Z,100.00
2022-08-09T06:38:56.920Z,100.00
2022-08-09T06:42:00.495Z,100.00
2022-08-09T06:44:18.333Z,100.00
2022-08-09T06:46:49.831Z,100.00
2022-08-09T06:49:44.752Z,100.00
2022-08-09T06:52:15.696Z,100.00
2022-08-09T06:54:44.137Z,100.00
2022-08-09T06:57:14.483Z,100.00
2022-08-09T07:00:52.617Z,100.00
2022-08-09T07:02:31.690Z,100.00
2022-08-09T07:05:01.243Z,100.00
2022-08-09T07:08:00.961Z,100.00
2022-08-09T07:10:24.071Z,100.00
2022-08-09T07:12:58.347Z,100.00
2022-08-09T07:16:36.226Z,100.00
2022-08-09T07:18:15.034Z,100.00
2022-08-09T07:20:43.532Z,100.00
2022-08-09T07:23:18.549Z,100.00
2022-08-09T07:25:52.065Z,100.00
2022-08-09T07:28:26.161Z,100.00
2022-08-09T07:30:56.392Z,100.00
2022-08-09T07:33:24.049Z,100.00
2022-08-09T07:35:53.552Z,100.00
2022-08-09T07:38:23.448Z,100.00
2022-08-09T07:41:08.241Z,100.00
2022-08-09T07:43:49.669Z,100.00
2022-08-09T07:46:24.310Z,100.00
2022-08-09T07:48:59.504Z,100.00
2022-08-09T07:52:05.713Z,98.55
2022-08-09T07:54:27.593Z,100.00
2022-08-09T07:56:55.924Z,97.35
2022-08-09T07:59:25.236Z,98.60
2022-08-09T08:02:01.773Z,94.84
2022-08-09T08:04:32.250Z,96.44
2022-08-09T08:07:14.972Z,93.71
2022-08-09T08:10:04.775Z,91.84
2022-08-09T08:12:42.880Z,95.34
2022-08-09T08:15:16.802Z,92.05
2022-08-09T08:17:54.198Z,91.99
2022-08-09T08:20:30.768Z,91.58
2022-08-09T08:23:15.938Z,90.87
2022-08-09T08:25:48.498Z,91.00
2022-08-09T08:28:32.175Z,92.09
2022-08-09T08:31:08.853Z,91.43
2022-08-09T08:33:53.784Z,89.65
2022-08-09T08:36:29.539Z,84.50
2022-08-09T08:39:00.060Z,83.87
2022-08-09T08:42:51.294Z,82.85
2022-08-09T08:45:36.710Z,79.88
2022-08-09T08:48:05.696Z,83.52
2022-08-09T08:50:33.890Z,81.70
2022-08-09T08:53:02.543Z,84.92
2022-08-09T08:55:32.261Z,86.30
2022-08-09T08:58:00.150Z,80.19
2022-08-09T09:00:34.392Z,70.93
2022-08-09T09:03:11.634Z,71.75
2022-08-09T09:05:58.722Z,74.37
2022-08-09T09:08:41.002Z,72.23
2022-08-09T09:11:17.376Z,71.34
2022-08-09T09:13:56.695Z,73.61
2022-08-09T09:16:30.677Z,72.41
2022-08-09T09:22:11.858Z,70.66
2022-08-09T09:26:01.042Z,73.12
2022-08-09T09:28:05.426Z,70.26
2022-08-09T09:30:53.689Z,72.12
2022-08-09T09:33:21.960Z,74.95
2022-08-09T09:36:20.922Z,74.49
2022-08-09T09:38:57.413Z,69.29
2022-08-09T09:41:33.324Z,73.78
2022-08-09T09:44:11.889Z,65.08
2022-08-09T09:46:50.796Z,65.26
2022-08-09T09:49:32.310Z,66.63
2022-08-09T09:52:16.759Z,68.13
2022-08-09T09:55:28.188Z,66.12
2022-08-09T09:58:17.186Z,67.44
2022-08-09T10:01:04.735Z,65.65
2022-08-09T10:03:57.777Z,64.36
2022-08-09T10:06:32.051Z,66.76
2022-08-09T10:09:02.917Z,67.61
2022-08-09T10:11:59.835Z,63.49
2022-08-09T10:14:32.944Z,65.55
2022-08-09T10:17:38.874Z,66.34
2022-08-09T10:20:00.145Z,68.48
2022-08-09T10:22:39.153Z,68.31
2022-08-09T10:25:12.205Z,68.13
2022-08-09T10:27:57.329Z,67.74
2022-08-09T10:34:04.558Z,66.47
2022-08-09T10:36:11.768Z,61.44
2022-08-09T10:38:56.070Z,61.71
2022-08-09T10:41:25.735Z,61.29
2022-08-09T10:43:59.066Z,64.82
2022-08-09T10:46:57.304Z,64.21
2022-08-09T10:49:51.418Z,59.94
2022-08-09T10:52:27.916Z,61.69
2022-08-09T10:54:56.276Z,62.99
2022-08-09T10:57:37.680Z,62.62
2022-08-09T11:00:31.420Z,63.45
2022-08-09T11:03:13.192Z,58.66
2022-08-09T11:06:12.573Z,62.36
2022-08-09T11:08:48.005Z,61.31
2022-08-09T11:11:19.929Z,62.36
2022-08-09T11:14:28.321Z,60.17
2022-08-09T11:17:00.093Z,63.39
2022-08-09T11:20:11.348Z,60.53
2022-08-09T11:22:41.657Z,57.34
2022-08-09T11:25:18.094Z,57.92
2022-08-09T11:28:05.325Z,56.05
2022-08-09T11:30:38.087Z,56.77
2022-08-09T11:33:06.240Z,56.63
2022-08-09T11:36:01.273Z,56.82
2022-08-09T11:38:34.101Z,55.10
2022-08-09T11:41:16.175Z,54.98
2022-08-09T11:43:49.168Z,61.45
2022-08-09T11:46:18.548Z,58.95
2022-08-09T11:48:56.963Z,59.60
2022-08-09T11:53:02.225Z,63.10
2022-08-09T11:54:27.669Z,59.40
2022-08-09T11:57:55.521Z,59.07
2022-08-09T12:00:27.227Z,58.41
2022-08-09T12:02:57.556Z,55.25
2022-08-09T12:05:37.972Z,60.37
2022-08-09T12:08:12.132Z,58.43
2022-08-09T12:10:48.287Z,56.22
2022-08-09T12:14:07.823Z,58.69
2022-08-09T12:16:30.766Z,58.77
2022-08-09T12:19:09.620Z,59.80
2022-08-09T12:21:48.593Z,57.29
2022-08-09T12:24:24.590Z,61.68
2022-08-09T12:28:59.035Z,58.37
2022-08-09T12:29:59.999Z,62.46
2022-08-09T12:32:32.177Z,58.80
2022-08-09T12:35:04.747Z,61.66
2022-08-09T12:37:50.600Z,60.64
2022-08-09T12:40:23.281Z,59.25
2022-08-09T12:42:54.266Z,58.20
2022-08-09T12:45:34.267Z,59.78
2022-08-09T12:48:10.712Z,56.83
2022-08-09T12:50:48.920Z,58.69
2022-08-09T12:53:37.008Z,58.75
2022-08-09T12:56:40.099Z,60.02
2022-08-09T12:59:16.903Z,60.92
2022-08-09T13:01:49.785Z,62.72
2022-08-09T13:04:37.196Z,63.96
2022-08-09T13:07:19.697Z,63.84
2022-08-09T13:09:52.867Z,64.84
2022-08-09T13:12:29.513Z,64.73
2022-08-09T13:15:08.611Z,67.23
2022-08-09T13:18:03.366Z,65.65
2022-08-09T13:20:37.455Z,65.05
2022-08-09T13:24:16.389Z,61.01
2022-08-09T13:26:06.730Z,64.02
2022-08-09T13:28:39.529Z,62.20
2022-08-09T13:32:14.481Z,60.97
2022-08-09T13:33:57.586Z,64.41
2022-08-09T13:36:41.713Z,62.11
2022-08-09T13:39:34.385Z,58.47
2022-08-09T13:42:12.519Z,60.18
2022-08-09T13:44:42.828Z,58.27
2022-08-09T13:47:30.983Z,60.03
2022-08-09T13:50:18.015Z,64.38
2022-08-09T13:52:57.737Z,62.35
2022-08-09T13:55:28.994Z,58.32
2022-08-09T13:57:59.343Z,59.52
2022-08-09T14:00:29.479Z,61.24
2022-08-09T14:03:04.535Z,63.72
2022-08-09T14:05:57.299Z,62.91
2022-08-09T14:08:28.297Z,61.96
2022-08-09T14:10:57.255Z,64.50
2022-08-09T14:14:16.368Z,65.13
2022-08-09T14:16:16.334Z,61.19
2022-08-09T14:18:49.631Z,65.38
2022-08-09T14:21:21.098Z,62.86
2022-08-09T14:23:53.650Z,61.75
2022-08-09T14:26:32.165Z,61.77
2022-08-09T14:30:04.182Z,59.84
2022-08-09T14:31:57.530Z,61.86
2022-08-09T14:34:27.534Z,58.98
2022-08-09T14:37:07.488Z,61.62
2022-08-09T14:39:46.978Z,61.42
2022-08-09T14:42:30.530Z,58.68
2022-08-09T14:46:46.095Z,58.36
2022-08-09T14:48:00.235Z,57.88
2022-08-09T14:50:35.188Z,56.04
2022-08-09T14:53:11.455Z,59.58
2022-08-09T14:55:49.817Z,58.67
2022-08-09T14:58:18.677Z,59.87
2022-08-09T15:00:48.442Z,60.93
2022-08-09T15:03:20.446Z,58.91
2022-08-09T15:05:52.537Z,60.43
2022-08-09T15:08:24.618Z,59.08
2022-08-09T15:11:00.979Z,61.51
2022-08-09T15:13:56.042Z,58.84
2022-08-09T15:16:17.562Z,58.21
2022-08-09T15:18:48.286Z,59.99
2022-08-09T15:21:54.744Z,61.34
2022-08-09T15:24:12.771Z,60.34
2022-08-09T15:26:46.583Z,60.00
2022-08-09T15:30:48.802Z,60.23
2022-08-09T15:32:02.790Z,60.45
2022-08-09T15:34:34.770Z,60.42
2022-08-09T15:37:37.102Z,62.13
2022-08-09T15:40:11.790Z,61.55
2022-08-09T15:42:40.752Z,60.50
2022-08-09T15:45:13.143Z,62.01
2022-08-09T15:47:52.807Z,60.75
2022-08-09T15:50:29.159Z,61.72
2022-08-09T15:53:06.034Z,62.22
2022-08-09T15:56:18.083Z,62.41
2022-08-09T15:58:27.100Z,60.72
2022-08-09T16:00:56.793Z,63.04
2022-08-09T16:03:29.428Z,63.58
2022-08-09T16:06:07.169Z,65.06
2022-08-09T16:08:56.294Z,64.78
2022-08-09T16:11:27.141Z,66.30
2022-08-09T16:14:02.864Z,65.49
2022-08-09T16:16:37.231Z,63.83
2022-08-09T16:19:07.782Z,65.31
2022-08-09T16:21:37.101Z,63.62
2022-08-09T16:24:05.933Z,64.40
2022-08-09T16:26:53.693Z,64.62
2022-08-09T16:29:37.286Z,64.45
2022-08-09T16:32:18.310Z,65.49
2022-08-09T16:34:56.550Z,66.23
2022-08-09T16:37:53.682Z,67.38
2022-08-09T16:40:20.440Z,65.30
2022-08-09T16:42:48.716Z,64.61
2022-08-09T16:45:19.810Z,64.89
2022-08-09T16:48:41.535Z,67.57
2022-08-09T16:50:39.188Z,65.51
2022-08-09T16:53:08.961Z,66.25
2022-08-09T16:55:58.290Z,66.85
2022-08-09T16:58:25.452Z,71.53
2022-08-09T17:00:53.385Z,70.21
2022-08-09T17:03:23.018Z,71.45
2022-08-09T17:06:06.615Z,71.70
2022-08-09T17:09:03.013Z,71.66
2022-08-09T17:11:40.781Z,71.51
2022-08-09T17:14:26.215Z,72.75
2022-08-09T17:17:00.059Z,72.00
2022-08-09T17:19:47.212Z,70.58
2022-08-09T17:22:24.856Z,72.06
2022-08-09T17:25:10.116Z,74.84
2022-08-09T17:27:49.618Z,76.81
2022-08-09T17:30:28.147Z,80.75
2022-08-09T17:33:01.013Z,82.17
2022-08-09T17:35:34.873Z,82.41
2022-08-09T17:38:13.179Z,83.73
2022-08-09T17:40:50.437Z,85.89
2022-08-09T17:43:33.618Z,88.51
2022-08-09T17:46:09.632Z,91.33
2022-08-09T17:48:51.594Z,91.84
2022-08-09T17:51:20.682Z,92.94
2022-08-09T17:53:53.385Z,93.99
2022-08-09T17:56:35.733Z,94.50
2022-08-09T17:59:11.946Z,96.13
2022-08-09T18:02:06.770Z,99.37
2022-08-09T18:04:31.942Z,100.00
2022-08-09T18:07:04.658Z,100.00
2022-08-09T18:09:40.576Z,100.00
2022-08-09T18:12:19.601Z,100.00
2022-08-09T18:14:54.672Z,100.00
2022-08-09T18:18:01.057Z,100.00
2022-08-09T18:20:54.252Z,100.00
2022-08-09T18:23:05.676Z,100.00
2022-08-09T18:25:53.062Z,100.00
2022-08-09T18:30:37.956Z,100.00
2022-08-09T18:31:15.375Z,100.00
2022-08-09T18:33:53.965Z,100.00
2022-08-09T18:36:26.089Z,100.00
2022-08-09T18:39:02.474Z,100.00
2022-08-09T18:41:34.327Z,100.00
2022-08-09T18:44:12.618Z,100.00
2022-08-09T18:46:50.786Z,100.00
2022-08-09T18:49:31.860Z,100.00
2022-08-09T18:52:00.162Z,100.00
2022-08-09T18:54:28.406Z,100.00
2022-08-09T18:57:06.349Z,100.00
2022-08-09T18:59:51.569Z,100.00
2022-08-09T19:02:31.645Z,100.00
2022-08-09T19:05:20.507Z,100.00
2022-08-09T19:08:04.768Z,100.00
2022-08-09T19:10:39.573Z,100.00
2022-08-09T19:13:23.022Z,100.00
2022-08-09T19:15:56.284Z,100.00
2022-08-09T19:18:35.822Z,100.00
2022-08-09T19:21:09.153Z,100.00
2022-08-09T19:24:35.866Z,100.00
2022-08-09T19:26:32.659Z,100.00
2022-08-09T19:29:15.380Z,100.00
2022-08-09T19:31:49.541Z,100.00
2022-08-09T19:34:22.828Z,100.00
2022-08-09T19:36:53.610Z,100.00
2022-08-09T19:39:43.900Z,100.00
2022-08-09T19:42:14.479Z,100.00
2022-08-09T19:44:42.946Z,100.00
2022-08-09T19:47:11.225Z,100.00
2022-08-09T19:50:09.569Z,100.00
2022-08-09T19:52:28.226Z,100.00
2022-08-09T19:54:56.074Z,100.00
2022-08-09T19:57:26.425Z,100.00
2022-08-09T19:59:59.287Z,100.00
2022-08-09T20:04:18.522Z,100.00
2022-08-09T20:05:25.265Z,100.00
2022-08-09T20:08:00.230Z,100.00
2022-08-09T20:10:34.384Z,100.00
2022-08-09T20:13:03.239Z,100.00
2022-08-09T20:16:37.626Z,100.00
2022-08-09T20:18:19.633Z,100.00
2022-08-09T20:20:47.755Z,100.00
2022-08-09T20:23:22.892Z,100.00
2022-08-09T20:25:53.562Z,100.00
2022-08-09T20:28:27.608Z,100.00
2022-08-09T20:31:05.334Z,100.00
2022-08-09T20:33:40.972Z,100.00
2022-08-09T20:36:12.035Z,100.00
2022-08-09T20:41:35.182Z,100.00
2022-08-09T20:44:10.086Z,100.00
2022-08-09T20:46:43.020Z,100.00
2022-08-09T20:49:15.842Z,100.00
2022-08-09T20:51:44.567Z,100.00
2022-08-09T20:54:18.335Z,100.00
2022-08-09T20:56:53.388Z,100.00
2022-08-09T20:59:25.044Z,100.00
2022-08-09T21:02:18.579Z,100.00
2022-08-09T21:05:56.366Z,100.00
2022-08-09T21:07:40.701Z,100.00
2022-08-09T21:10:12.116Z,100.00
2022-08-09T21:12:39.857Z,100.00
2022-08-09T21:15:12.353Z,100.00
2022-08-09T21:18:20.799Z,100.00
2022-08-09T21:20:30.122Z,100.00
2022-08-09T21:22:59.640Z,100.00
2022-08-09T21:25:55.815Z,100.00
2022-08-09T21:28:34.832Z,100.00
2022-08-09T21:31:16.704Z,100.00
2022-08-09T21:33:50.556Z,100.00
2022-08-09T21:36:27.999Z,100.00
2022-08-09T21:39:00.141Z,100.00
2022-08-09T21:42:03.590Z,100.00
2022-08-09T21:44:32.847Z,100.00
2022-08-09T21:47:08.457Z,100.00
2022-08-09T21:49:40.074Z,100.00
2022-08-09T21:52:14.998Z,100.00
2022-08-09T21:54:57.182Z,100.00
2022-08-09T21:57:38.815Z,100.00
2022-08-09T22:00:32.204Z,100.00
2022-08-09T22:03:04.487Z,100.00
2022-08-09T22:05:36.690Z,100.00
2022-08-09T22:08:13.606Z,100.00
2022-08-09T22:11:50.099Z,100.00
2022-08-09T22:13:34.874Z,100.00
2022-08-09T22:16:07.106Z,100.00
2022-08-09T22:18:54.484Z,100.00
2022-08-09T22:21:45.316Z,100.00
2022-08-09T22:24:17.226Z,100.00
2022-08-09T22:26:51.426Z,100.00
2022-08-09T22:29:24.062Z,100.00
2022-08-09T22:31:58.026Z,100.00
2022-08-09T22:34:26.843Z,100.00
2022-08-09T22:36:58.932Z,100.00
2022-08-09T22:39:55.838Z,100.00
2022-08-09T22:42:22.398Z,100.00
2022-08-09T22:45:01.568Z,100.00
2022-08-09T22:48:34.064Z,100.00
2022-08-09T22:50:30.040Z,100.00
2022-08-09T22:52:58.856Z,100.00
2022-08-09T22:55:33.730Z,100.00
2022-08-09T22:58:30.568Z,100.00
2022-08-09T23:01:02.020Z,100.00
2022-08-09T23:04:03.673Z,100.00
2022-08-09T23:06:32.665Z,100.00
2022-08-09T23:09:07.867Z,100.00
2022-08-09T23:11:36.053Z,100.00
2022-08-09T23:14:10.285Z,100.00
2022-08-09T23:16:45.494Z,100.00
2022-08-09T23:19:13.025Z,100.00
2022-08-09T23:21:40.579Z,100.00
2022-08-09T23:24:08.470Z,100.00
2022-08-09T23:26:37.220Z,100.00
2022-08-09T23:29:10.150Z,100.00
2022-08-09T23:31:38.118Z,100.00
2022-08-09T23:34:05.482Z,100.00
2022-08-09T23:36:34.383Z,100.00
2022-08-09T23:39:04.609Z,100.00
2022-08-09T23:41:32.486Z,100.00
2022-08-09T23:44:01.862Z,100.00
2022-08-09T23:46:30.401Z,100.00
2022-08-09T23:48:59.355Z,100.00
2022-08-09T23:51:27.597Z,100.00
2022-08-09T23:54:02.134Z,100.00
2022-08-09T23:56:52.631Z,100.00
2022-08-09T23:59:23.402Z,100.00
